sensor_id;sensor_type;location;lat;lon;timestamp;P1;durP1;ratioP1;P2;durP2;ratioP2
11220;SDS011;8517;53.546;10.104;2022-09-09T00:07:19;54.10;;;19.90;;
11220;SDS011;8517;53.546;10.104;2022-09-09T00:09:57;91.37;;;20.47;;
11220;SDS011;8517;53.546;10.104;2022-09-09T00:12:32;76.73;;;20.57;;
11220;SDS011;8517;53.546;10.104;2022-09-09T00:15:11;57.67;;;19.03;;
11220;SDS011;8517;53.546;10.104;2022-09-09T00:20:45;77.30;;;20.87;;
11220;SDS011;8517;53.546;10.104;2022-09-09T00:26:38;102.70;;;18.57;;
11220;SDS011;8517;53.546;10.104;2022-09-09T00:29:22;61.10;;;18.63;;
11220;SDS011;8517;53.546;10.104;2022-09-09T00:32:34;82.30;;;18.13;;
11220;SDS011;8517;53.546;10.104;2022-09-09T00:35:09;61.73;;;17.53;;
11220;SDS011;8517;53.546;10.104;2022-09-09T00:40:48;37.80;;;15.73;;
11220;SDS011;8517;53.546;10.104;2022-09-09T00:43:24;46.47;;;14.77;;
11220;SDS011;8517;53.546;10.104;2022-09-09T00:46:21;90.33;;;16.50;;
11220;SDS011;8517;53.546;10.104;2022-09-09T00:49:47;83.80;;;16.80;;
11220;SDS011;8517;53.546;10.104;2022-09-09T00:52:08;43.57;;;14.90;;
11220;SDS011;8517;53.546;10.104;2022-09-09T00:54:48;35.80;;;14.73;;
11220;SDS011;8517;53.546;10.104;2022-09-09T00:57:25;35.73;;;15.67;;
11220;SDS011;8517;53.546;10.104;2022-09-09T01:00:15;51.13;;;15.80;;
11220;SDS011;8517;53.546;10.104;2022-09-09T01:03:02;43.97;;;14.63;;
11220;SDS011;8517;53.546;10.104;2022-09-09T01:05:49;47.57;;;14.63;;
11220;SDS011;8517;53.546;10.104;2022-09-09T01:08:43;27.63;;;15.73;;
11220;SDS011;8517;53.546;10.104;2022-09-09T01:11:32;44.10;;;15.53;;
11220;SDS011;8517;53.546;10.104;2022-09-09T01:14:10;34.83;;;15.53;;
11220;SDS011;8517;53.546;10.104;2022-09-09T01:16:47;62.83;;;16.40;;
11220;SDS011;8517;53.546;10.104;2022-09-09T01:19:18;42.20;;;14.60;;
11220;SDS011;8517;53.546;10.104;2022-09-09T01:21:54;32.27;;;14.63;;
11220;SDS011;8517;53.546;10.104;2022-09-09T01:24:40;41.20;;;15.73;;
11220;SDS011;8517;53.546;10.104;2022-09-09T01:27:13;39.93;;;15.40;;
11220;SDS011;8517;53.546;10.104;2022-09-09T01:29:48;20.97;;;16.03;;
11220;SDS011;8517;53.546;10.104;2022-09-09T01:35:10;50.67;;;15.53;;
11220;SDS011;8517;53.546;10.104;2022-09-09T01:37:39;84.60;;;17.27;;
11220;SDS011;8517;53.546;10.104;2022-09-09T01:40:07;80.63;;;15.90;;
11220;SDS011;8517;53.546;10.104;2022-09-09T01:42:36;19.07;;;15.00;;
11220;SDS011;8517;53.546;10.104;2022-09-09T01:45:09;25.40;;;15.23;;
11220;SDS011;8517;53.546;10.104;2022-09-09T01:47:38;46.10;;;16.27;;
11220;SDS011;8517;53.546;10.104;2022-09-09T01:50:06;54.10;;;16.83;;
11220;SDS011;8517;53.546;10.104;2022-09-09T01:52:36;24.93;;;15.73;;
11220;SDS011;8517;53.546;10.104;2022-09-09T01:55:03;38.87;;;16.00;;
11220;SDS011;8517;53.546;10.104;2022-09-09T01:57:33;113.77;;;16.63;;
11220;SDS011;8517;53.546;10.104;2022-09-09T02:00:06;26.13;;;14.50;;
11220;SDS011;8517;53.546;10.104;2022-09-09T02:02:35;52.63;;;14.77;;
11220;SDS011;8517;53.546;10.104;2022-09-09T02:05:40;76.03;;;15.20;;
11220;SDS011;8517;53.546;10.104;2022-09-09T02:08:19;39.63;;;15.53;;
11220;SDS011;8517;53.546;10.104;2022-09-09T02:10:50;43.87;;;16.10;;
11220;SDS011;8517;53.546;10.104;2022-09-09T02:13:23;37.23;;;15.17;;
11220;SDS011;8517;53.546;10.104;2022-09-09T02:15:52;30.07;;;15.10;;
11220;SDS011;8517;53.546;10.104;2022-09-09T02:18:24;45.17;;;15.80;;
11220;SDS011;8517;53.546;10.104;2022-09-09T02:20:53;64.67;;;15.43;;
11220;SDS011;8517;53.546;10.104;2022-09-09T02:23:21;107.70;;;16.53;;
11220;SDS011;8517;53.546;10.104;2022-09-09T02:25:48;81.40;;;14.50;;
11220;SDS011;8517;53.546;10.104;2022-09-09T02:28:17;56.33;;;13.80;;
11220;SDS011;8517;53.546;10.104;2022-09-09T02:30:51;86.90;;;13.43;;
11220;SDS011;8517;53.546;10.104;2022-09-09T02:33:20;138.27;;;15.00;;
11220;SDS011;8517;53.546;10.104;2022-09-09T02:35:50;86.10;;;13.97;;
11220;SDS011;8517;53.546;10.104;2022-09-09T02:38:18;74.77;;;14.77;;
11220;SDS011;8517;53.546;10.104;2022-09-09T02:40:47;57.27;;;13.03;;
11220;SDS011;8517;53.546;10.104;2022-09-09T02:43:14;87.03;;;12.60;;
11220;SDS011;8517;53.546;10.104;2022-09-09T02:45:50;52.33;;;12.00;;
11220;SDS011;8517;53.546;10.104;2022-09-09T02:48:26;39.23;;;13.17;;
11220;SDS011;8517;53.546;10.104;2022-09-09T02:51:01;39.23;;;13.23;;
11220;SDS011;8517;53.546;10.104;2022-09-09T02:53:37;25.43;;;12.53;;
11220;SDS011;8517;53.546;10.104;2022-09-09T02:56:11;15.87;;;12.20;;
11220;SDS011;8517;53.546;10.104;2022-09-09T02:58:43;39.33;;;12.83;;
11220;SDS011;8517;53.546;10.104;2022-09-09T03:01:12;19.47;;;12.07;;
11220;SDS011;8517;53.546;10.104;2022-09-09T03:03:39;37.30;;;12.23;;
11220;SDS011;8517;53.546;10.104;2022-09-09T03:06:07;30.87;;;12.83;;
11220;SDS011;8517;53.546;10.104;2022-09-09T03:08:33;76.67;;;13.00;;
11220;SDS011;8517;53.546;10.104;2022-09-09T03:11:00;25.63;;;13.80;;
11220;SDS011;8517;53.546;10.104;2022-09-09T03:13:28;50.47;;;14.13;;
11220;SDS011;8517;53.546;10.104;2022-09-09T03:15:55;16.30;;;13.33;;
11220;SDS011;8517;53.546;10.104;2022-09-09T03:21:07;47.87;;;15.10;;
11220;SDS011;8517;53.546;10.104;2022-09-09T03:23:34;46.03;;;15.20;;
11220;SDS011;8517;53.546;10.104;2022-09-09T03:26:03;20.53;;;13.63;;
11220;SDS011;8517;53.546;10.104;2022-09-09T03:28:30;16.03;;;14.13;;
11220;SDS011;8517;53.546;10.104;2022-09-09T03:30:59;27.87;;;14.77;;
11220;SDS011;8517;53.546;10.104;2022-09-09T03:33:27;44.13;;;14.50;;
11220;SDS011;8517;53.546;10.104;2022-09-09T03:35:55;46.47;;;12.93;;
11220;SDS011;8517;53.546;10.104;2022-09-09T03:38:22;44.23;;;13.37;;
11220;SDS011;8517;53.546;10.104;2022-09-09T03:40:50;18.47;;;13.23;;
11220;SDS011;8517;53.546;10.104;2022-09-09T03:43:20;50.13;;;13.40;;
11220;SDS011;8517;53.546;10.104;2022-09-09T03:45:47;72.93;;;12.87;;
11220;SDS011;8517;53.546;10.104;2022-09-09T03:48:14;36.40;;;12.07;;
11220;SDS011;8517;53.546;10.104;2022-09-09T03:50:43;21.63;;;12.33;;
11220;SDS011;8517;53.546;10.104;2022-09-09T03:53:12;38.80;;;12.57;;
11220;SDS011;8517;53.546;10.104;2022-09-09T03:55:43;51.53;;;12.43;;
11220;SDS011;8517;53.546;10.104;2022-09-09T03:58:10;54.23;;;12.03;;
11220;SDS011;8517;53.546;10.104;2022-09-09T04:00:37;27.33;;;12.30;;
11220;SDS011;8517;53.546;10.104;2022-09-09T04:03:07;60.07;;;12.97;;
11220;SDS011;8517;53.546;10.104;2022-09-09T04:05:34;85.93;;;12.03;;
11220;SDS011;8517;53.546;10.104;2022-09-09T04:08:04;21.50;;;12.23;;
11220;SDS011;8517;53.546;10.104;2022-09-09T04:10:32;40.50;;;12.33;;
11220;SDS011;8517;53.546;10.104;2022-09-09T04:13:02;44.33;;;12.70;;
11220;SDS011;8517;53.546;10.104;2022-09-09T04:15:28;35.63;;;13.50;;
11220;SDS011;8517;53.546;10.104;2022-09-09T04:17:55;34.30;;;12.77;;
11220;SDS011;8517;53.546;10.104;2022-09-09T04:20:22;62.03;;;13.40;;
11220;SDS011;8517;53.546;10.104;2022-09-09T04:22:49;45.13;;;31.07;;
11220;SDS011;8517;53.546;10.104;2022-09-09T04:25:15;31.57;;;28.20;;
11220;SDS011;8517;53.546;10.104;2022-09-09T04:27:43;330.97;;;275.30;;
11220;SDS011;8517;53.546;10.104;2022-09-09T04:30:12;106.00;;;26.47;;
11220;SDS011;8517;53.546;10.104;2022-09-09T04:32:39;55.47;;;14.63;;
11220;SDS011;8517;53.546;10.104;2022-09-09T04:35:06;42.77;;;13.87;;
11220;SDS011;8517;53.546;10.104;2022-09-09T04:37:33;22.77;;;12.50;;
11220;SDS011;8517;53.546;10.104;2022-09-09T04:40:00;33.50;;;13.67;;
11220;SDS011;8517;53.546;10.104;2022-09-09T04:42:27;18.70;;;11.97;;
11220;SDS011;8517;53.546;10.104;2022-09-09T04:44:55;22.90;;;12.43;;
11220;SDS011;8517;53.546;10.104;2022-09-09T04:47:22;14.33;;;12.93;;
11220;SDS011;8517;53.546;10.104;2022-09-09T04:49:49;14.70;;;12.63;;
11220;SDS011;8517;53.546;10.104;2022-09-09T04:52:16;27.70;;;24.67;;
11220;SDS011;8517;53.546;10.104;2022-09-09T04:54:43;89.43;;;74.87;;
11220;SDS011;8517;53.546;10.104;2022-09-09T04:57:10;26.03;;;23.23;;
11220;SDS011;8517;53.546;10.104;2022-09-09T04:59:37;17.83;;;15.97;;
11220;SDS011;8517;53.546;10.104;2022-09-09T05:02:06;15.07;;;13.57;;
11220;SDS011;8517;53.546;10.104;2022-09-09T05:04:33;13.57;;;12.27;;
11220;SDS011;8517;53.546;10.104;2022-09-09T05:07:00;12.77;;;11.57;;
11220;SDS011;8517;53.546;10.104;2022-09-09T05:09:26;14.73;;;13.13;;
11220;SDS011;8517;53.546;10.104;2022-09-09T05:11:54;16.40;;;14.80;;
11220;SDS011;8517;53.546;10.104;2022-09-09T05:14:20;13.07;;;11.67;;
11220;SDS011;8517;53.546;10.104;2022-09-09T05:16:47;12.70;;;11.40;;
11220;SDS011;8517;53.546;10.104;2022-09-09T05:19:16;12.60;;;10.77;;
11220;SDS011;8517;53.546;10.104;2022-09-09T05:21:44;12.27;;;11.07;;
11220;SDS011;8517;53.546;10.104;2022-09-09T05:24:11;12.57;;;11.40;;
11220;SDS011;8517;53.546;10.104;2022-09-09T05:26:37;12.53;;;11.23;;
11220;SDS011;8517;53.546;10.104;2022-09-09T05:29:04;12.03;;;10.90;;
11220;SDS011;8517;53.546;10.104;2022-09-09T05:31:31;15.80;;;11.83;;
11220;SDS011;8517;53.546;10.104;2022-09-09T05:33:58;12.80;;;11.37;;
11220;SDS011;8517;53.546;10.104;2022-09-09T05:36:26;12.03;;;10.83;;
11220;SDS011;8517;53.546;10.104;2022-09-09T05:38:52;11.50;;;10.07;;
11220;SDS011;8517;53.546;10.104;2022-09-09T05:41:22;12.63;;;10.53;;
11220;SDS011;8517;53.546;10.104;2022-09-09T05:43:49;11.47;;;10.30;;
11220;SDS011;8517;53.546;10.104;2022-09-09T05:46:17;13.07;;;10.67;;
11220;SDS011;8517;53.546;10.104;2022-09-09T05:48:45;10.37;;;9.47;;
11220;SDS011;8517;53.546;10.104;2022-09-09T05:51:14;10.97;;;9.80;;
11220;SDS011;8517;53.546;10.104;2022-09-09T05:53:43;12.07;;;9.43;;
11220;SDS011;8517;53.546;10.104;2022-09-09T05:56:12;9.87;;;8.97;;
11220;SDS011;8517;53.546;10.104;2022-09-09T05:58:40;14.13;;;9.67;;
11220;SDS011;8517;53.546;10.104;2022-09-09T06:01:09;9.90;;;9.00;;
11220;SDS011;8517;53.546;10.104;2022-09-09T06:03:39;10.40;;;9.40;;
11220;SDS011;8517;53.546;10.104;2022-09-09T06:06:07;10.40;;;8.70;;
11220;SDS011;8517;53.546;10.104;2022-09-09T06:08:35;10.03;;;9.03;;
11220;SDS011;8517;53.546;10.104;2022-09-09T06:11:06;9.47;;;8.37;;
11220;SDS011;8517;53.546;10.104;2022-09-09T06:13:35;9.90;;;9.00;;
11220;SDS011;8517;53.546;10.104;2022-09-09T06:16:04;9.07;;;8.10;;
11220;SDS011;8517;53.546;10.104;2022-09-09T06:18:32;8.23;;;7.43;;
11220;SDS011;8517;53.546;10.104;2022-09-09T06:20:59;8.57;;;7.77;;
11220;SDS011;8517;53.546;10.104;2022-09-09T06:23:28;8.80;;;7.90;;
11220;SDS011;8517;53.546;10.104;2022-09-09T06:26:02;8.70;;;7.67;;
11220;SDS011;8517;53.546;10.104;2022-09-09T06:28:33;8.73;;;7.00;;
11220;SDS011;8517;53.546;10.104;2022-09-09T06:31:00;8.83;;;7.53;;
11220;SDS011;8517;53.546;10.104;2022-09-09T06:33:30;9.53;;;7.60;;
11220;SDS011;8517;53.546;10.104;2022-09-09T06:35:59;9.73;;;7.40;;
11220;SDS011;8517;53.546;10.104;2022-09-09T06:38:27;8.00;;;6.97;;
11220;SDS011;8517;53.546;10.104;2022-09-09T06:40:54;8.27;;;7.43;;
11220;SDS011;8517;53.546;10.104;2022-09-09T06:43:21;8.20;;;7.40;;
11220;SDS011;8517;53.546;10.104;2022-09-09T06:45:56;7.50;;;6.67;;
11220;SDS011;8517;53.546;10.104;2022-09-09T06:48:24;7.83;;;7.03;;
11220;SDS011;8517;53.546;10.104;2022-09-09T06:50:59;8.20;;;7.40;;
11220;SDS011;8517;53.546;10.104;2022-09-09T06:53:26;7.73;;;6.87;;
11220;SDS011;8517;53.546;10.104;2022-09-09T06:55:53;7.87;;;7.07;;
11220;SDS011;8517;53.546;10.104;2022-09-09T06:58:20;7.70;;;7.00;;
11220;SDS011;8517;53.546;10.104;2022-09-09T07:00:48;34.73;;;28.07;;
11220;SDS011;8517;53.546;10.104;2022-09-09T07:03:16;11.77;;;8.33;;
11220;SDS011;8517;53.546;10.104;2022-09-09T07:05:43;8.07;;;7.30;;
11220;SDS011;8517;53.546;10.104;2022-09-09T07:08:19;7.47;;;6.57;;
11220;SDS011;8517;53.546;10.104;2022-09-09T07:10:45;8.17;;;5.80;;
11220;SDS011;8517;53.546;10.104;2022-09-09T07:13:12;5.90;;;5.40;;
11220;SDS011;8517;53.546;10.104;2022-09-09T07:15:40;8.70;;;5.93;;
11220;SDS011;8517;53.546;10.104;2022-09-09T07:18:07;7.87;;;5.40;;
11220;SDS011;8517;53.546;10.104;2022-09-09T07:20:36;6.43;;;5.43;;
11220;SDS011;8517;53.546;10.104;2022-09-09T07:23:03;7.40;;;5.37;;
11220;SDS011;8517;53.546;10.104;2022-09-09T07:25:29;6.73;;;5.70;;
11220;SDS011;8517;53.546;10.104;2022-09-09T07:27:56;6.77;;;5.03;;
11220;SDS011;8517;53.546;10.104;2022-09-09T07:30:23;7.03;;;5.13;;
11220;SDS011;8517;53.546;10.104;2022-09-09T07:32:50;6.50;;;4.97;;
11220;SDS011;8517;53.546;10.104;2022-09-09T07:35:17;6.17;;;5.03;;
11220;SDS011;8517;53.546;10.104;2022-09-09T07:37:46;31.00;;;26.83;;
11220;SDS011;8517;53.546;10.104;2022-09-09T07:40:13;16.00;;;14.13;;
11220;SDS011;8517;53.546;10.104;2022-09-09T07:42:40;8.20;;;6.00;;
11220;SDS011;8517;53.546;10.104;2022-09-09T07:45:07;5.33;;;4.83;;
11220;SDS011;8517;53.546;10.104;2022-09-09T07:47:34;5.47;;;4.50;;
11220;SDS011;8517;53.546;10.104;2022-09-09T07:50:00;4.93;;;4.07;;
11220;SDS011;8517;53.546;10.104;2022-09-09T07:52:27;6.77;;;4.40;;
11220;SDS011;8517;53.546;10.104;2022-09-09T07:54:55;7.37;;;4.13;;
11220;SDS011;8517;53.546;10.104;2022-09-09T07:57:22;6.13;;;4.07;;
11220;SDS011;8517;53.546;10.104;2022-09-09T07:59:49;5.83;;;4.03;;
11220;SDS011;8517;53.546;10.104;2022-09-09T08:02:15;8.60;;;4.30;;
11220;SDS011;8517;53.546;10.104;2022-09-09T08:04:42;8.50;;;4.10;;
11220;SDS011;8517;53.546;10.104;2022-09-09T08:07:09;4.97;;;3.57;;
11220;SDS011;8517;53.546;10.104;2022-09-09T08:09:35;5.93;;;4.33;;
11220;SDS011;8517;53.546;10.104;2022-09-09T08:12:03;7.67;;;4.00;;
11220;SDS011;8517;53.546;10.104;2022-09-09T08:14:31;5.40;;;3.67;;
11220;SDS011;8517;53.546;10.104;2022-09-09T08:16:58;4.37;;;3.30;;
11220;SDS011;8517;53.546;10.104;2022-09-09T08:19:25;5.03;;;3.20;;
11220;SDS011;8517;53.546;10.104;2022-09-09T08:21:54;5.63;;;3.50;;
11220;SDS011;8517;53.546;10.104;2022-09-09T08:24:20;4.80;;;3.50;;
11220;SDS011;8517;53.546;10.104;2022-09-09T08:26:48;3.87;;;3.47;;
11220;SDS011;8517;53.546;10.104;2022-09-09T08:29:17;31.53;;;24.90;;
11220;SDS011;8517;53.546;10.104;2022-09-09T08:31:44;9.60;;;7.87;;
11220;SDS011;8517;53.546;10.104;2022-09-09T08:34:13;6.77;;;5.03;;
11220;SDS011;8517;53.546;10.104;2022-09-09T08:36:41;4.37;;;3.30;;
11220;SDS011;8517;53.546;10.104;2022-09-09T08:39:09;4.13;;;3.23;;
11220;SDS011;8517;53.546;10.104;2022-09-09T08:41:48;5.13;;;3.70;;
11220;SDS011;8517;53.546;10.104;2022-09-09T08:44:40;6.27;;;3.00;;
11220;SDS011;8517;53.546;10.104;2022-09-09T08:47:16;3.63;;;3.30;;
11220;SDS011;8517;53.546;10.104;2022-09-09T08:49:56;6.13;;;3.40;;
11220;SDS011;8517;53.546;10.104;2022-09-09T08:52:36;5.47;;;3.17;;
11220;SDS011;8517;53.546;10.104;2022-09-09T08:55:19;3.87;;;2.77;;
11220;SDS011;8517;53.546;10.104;2022-09-09T08:57:51;6.47;;;3.17;;
11220;SDS011;8517;53.546;10.104;2022-09-09T09:00:21;6.37;;;3.07;;
11220;SDS011;8517;53.546;10.104;2022-09-09T09:02:52;5.83;;;3.33;;
11220;SDS011;8517;53.546;10.104;2022-09-09T09:05:26;3.60;;;2.60;;
11220;SDS011;8517;53.546;10.104;2022-09-09T09:07:59;4.57;;;2.90;;
11220;SDS011;8517;53.546;10.104;2022-09-09T09:10:39;5.30;;;3.80;;
11220;SDS011;8517;53.546;10.104;2022-09-09T09:13:13;3.27;;;2.97;;
11220;SDS011;8517;53.546;10.104;2022-09-09T09:15:44;3.93;;;3.03;;
11220;SDS011;8517;53.546;10.104;2022-09-09T09:18:16;5.57;;;3.17;;
11220;SDS011;8517;53.546;10.104;2022-09-09T09:20:46;5.17;;;2.73;;
11220;SDS011;8517;53.546;10.104;2022-09-09T09:23:22;4.57;;;2.90;;
11220;SDS011;8517;53.546;10.104;2022-09-09T09:25:52;3.47;;;2.60;;
11220;SDS011;8517;53.546;10.104;2022-09-09T09:28:23;3.43;;;2.80;;
11220;SDS011;8517;53.546;10.104;2022-09-09T09:30:53;4.53;;;2.60;;
11220;SDS011;8517;53.546;10.104;2022-09-09T09:33:24;3.07;;;2.30;;
11220;SDS011;8517;53.546;10.104;2022-09-09T09:35:55;5.40;;;3.27;;
11220;SDS011;8517;53.546;10.104;2022-09-09T09:38:22;3.47;;;2.73;;
11220;SDS011;8517;53.546;10.104;2022-09-09T09:40:52;3.37;;;2.50;;
11220;SDS011;8517;53.546;10.104;2022-09-09T09:43:24;3.40;;;2.40;;
11220;SDS011;8517;53.546;10.104;2022-09-09T09:45:54;2.93;;;2.13;;
11220;SDS011;8517;53.546;10.104;2022-09-09T09:48:22;3.03;;;2.20;;
11220;SDS011;8517;53.546;10.104;2022-09-09T09:50:50;3.97;;;2.60;;
11220;SDS011;8517;53.546;10.104;2022-09-09T09:53:20;2.40;;;2.10;;
11220;SDS011;8517;53.546;10.104;2022-09-09T09:55:51;2.97;;;2.20;;
11220;SDS011;8517;53.546;10.104;2022-09-09T09:58:20;2.77;;;2.33;;
11220;SDS011;8517;53.546;10.104;2022-09-09T10:00:47;2.93;;;2.30;;
11220;SDS011;8517;53.546;10.104;2022-09-09T10:03:21;3.13;;;2.40;;
11220;SDS011;8517;53.546;10.104;2022-09-09T10:05:49;3.87;;;2.10;;
11220;SDS011;8517;53.546;10.104;2022-09-09T10:08:17;3.50;;;2.53;;
11220;SDS011;8517;53.546;10.104;2022-09-09T10:10:51;2.07;;;1.80;;
11220;SDS011;8517;53.546;10.104;2022-09-09T10:13:39;4.67;;;1.87;;
11220;SDS011;8517;53.546;10.104;2022-09-09T10:16:23;2.70;;;2.00;;
11220;SDS011;8517;53.546;10.104;2022-09-09T10:19:00;4.77;;;2.33;;
11220;SDS011;8517;53.546;10.104;2022-09-09T10:21:46;2.53;;;2.07;;
11220;SDS011;8517;53.546;10.104;2022-09-09T10:24:33;1.93;;;1.80;;
11220;SDS011;8517;53.546;10.104;2022-09-09T10:27:11;1.90;;;1.60;;
11220;SDS011;8517;53.546;10.104;2022-09-09T10:29:55;2.63;;;1.63;;
11220;SDS011;8517;53.546;10.104;2022-09-09T10:32:37;3.43;;;1.97;;
11220;SDS011;8517;53.546;10.104;2022-09-09T10:35:14;7.50;;;5.77;;
11220;SDS011;8517;53.546;10.104;2022-09-09T10:37:58;1.43;;;1.33;;
11220;SDS011;8517;53.546;10.104;2022-09-09T10:40:43;2.20;;;1.33;;
11220;SDS011;8517;53.546;10.104;2022-09-09T10:43:18;2.10;;;1.50;;
11220;SDS011;8517;53.546;10.104;2022-09-09T10:45:55;3.63;;;1.33;;
11220;SDS011;8517;53.546;10.104;2022-09-09T10:48:31;2.37;;;1.50;;
11220;SDS011;8517;53.546;10.104;2022-09-09T10:51:15;3.10;;;1.60;;
11220;SDS011;8517;53.546;10.104;2022-09-09T10:53:52;3.30;;;1.50;;
11220;SDS011;8517;53.546;10.104;2022-09-09T10:56:29;2.87;;;1.70;;
11220;SDS011;8517;53.546;10.104;2022-09-09T10:58:58;1.87;;;1.40;;
11220;SDS011;8517;53.546;10.104;2022-09-09T11:01:29;3.17;;;1.40;;
11220;SDS011;8517;53.546;10.104;2022-09-09T11:04:04;2.33;;;1.70;;
11220;SDS011;8517;53.546;10.104;2022-09-09T11:06:41;4.50;;;1.90;;
11220;SDS011;8517;53.546;10.104;2022-09-09T11:09:13;2.10;;;1.73;;
11220;SDS011;8517;53.546;10.104;2022-09-09T11:11:44;3.73;;;1.70;;
11220;SDS011;8517;53.546;10.104;2022-09-09T11:14:18;3.30;;;1.80;;
11220;SDS011;8517;53.546;10.104;2022-09-09T11:16:50;3.07;;;1.90;;
11220;SDS011;8517;53.546;10.104;2022-09-09T11:19:21;3.00;;;1.40;;
11220;SDS011;8517;53.546;10.104;2022-09-09T11:21:57;4.33;;;1.30;;
11220;SDS011;8517;53.546;10.104;2022-09-09T11:24:47;1.83;;;1.53;;
11220;SDS011;8517;53.546;10.104;2022-09-09T11:27:17;2.37;;;1.30;;
11220;SDS011;8517;53.546;10.104;2022-09-09T11:35:38;2.73;;;1.53;;
11220;SDS011;8517;53.546;10.104;2022-09-09T11:38:20;4.13;;;1.37;;
11220;SDS011;8517;53.546;10.104;2022-09-09T11:41:00;2.37;;;1.23;;
11220;SDS011;8517;53.546;10.104;2022-09-09T11:43:38;3.07;;;1.50;;
11220;SDS011;8517;53.546;10.104;2022-09-09T11:46:06;2.70;;;1.70;;
11220;SDS011;8517;53.546;10.104;2022-09-09T11:48:35;4.10;;;1.70;;
11220;SDS011;8517;53.546;10.104;2022-09-09T11:51:04;2.83;;;1.53;;
11220;SDS011;8517;53.546;10.104;2022-09-09T11:53:34;2.40;;;1.37;;
11220;SDS011;8517;53.546;10.104;2022-09-09T11:56:13;4.10;;;1.70;;
11220;SDS011;8517;53.546;10.104;2022-09-09T11:58:55;3.23;;;1.83;;
11220;SDS011;8517;53.546;10.104;2022-09-09T12:01:35;4.00;;;1.50;;
11220;SDS011;8517;53.546;10.104;2022-09-09T12:07:04;2.53;;;1.50;;
11220;SDS011;8517;53.546;10.104;2022-09-09T12:09:54;3.27;;;1.50;;
11220;SDS011;8517;53.546;10.104;2022-09-09T12:12:32;2.53;;;1.60;;
11220;SDS011;8517;53.546;10.104;2022-09-09T12:15:15;2.40;;;1.40;;
11220;SDS011;8517;53.546;10.104;2022-09-09T12:17:54;4.77;;;1.90;;
11220;SDS011;8517;53.546;10.104;2022-09-09T12:20:23;15.57;;;13.77;;
11220;SDS011;8517;53.546;10.104;2022-09-09T12:23:06;3.63;;;2.60;;
11220;SDS011;8517;53.546;10.104;2022-09-09T12:25:55;5.23;;;1.90;;
11220;SDS011;8517;53.546;10.104;2022-09-09T12:28:41;4.27;;;1.80;;
11220;SDS011;8517;53.546;10.104;2022-09-09T12:31:17;2.80;;;1.47;;
11220;SDS011;8517;53.546;10.104;2022-09-09T12:33:50;2.93;;;1.80;;
11220;SDS011;8517;53.546;10.104;2022-09-09T12:36:18;2.60;;;1.53;;
11220;SDS011;8517;53.546;10.104;2022-09-09T12:38:48;2.30;;;1.57;;
11220;SDS011;8517;53.546;10.104;2022-09-09T12:41:20;2.43;;;2.00;;
11220;SDS011;8517;53.546;10.104;2022-09-09T12:43:47;4.00;;;1.80;;
11220;SDS011;8517;53.546;10.104;2022-09-09T12:46:17;2.10;;;1.90;;
11220;SDS011;8517;53.546;10.104;2022-09-09T12:48:52;4.83;;;1.90;;
11220;SDS011;8517;53.546;10.104;2022-09-09T12:51:21;3.57;;;2.20;;
11220;SDS011;8517;53.546;10.104;2022-09-09T12:53:51;2.93;;;1.80;;
11220;SDS011;8517;53.546;10.104;2022-09-09T12:56:20;3.73;;;2.10;;
11220;SDS011;8517;53.546;10.104;2022-09-09T12:58:50;5.20;;;2.43;;
11220;SDS011;8517;53.546;10.104;2022-09-09T13:01:20;3.53;;;2.60;;
11220;SDS011;8517;53.546;10.104;2022-09-09T13:03:48;3.50;;;1.97;;
11220;SDS011;8517;53.546;10.104;2022-09-09T13:06:18;4.33;;;2.17;;
11220;SDS011;8517;53.546;10.104;2022-09-09T13:08:47;4.77;;;2.07;;
11220;SDS011;8517;53.546;10.104;2022-09-09T13:11:15;23.40;;;20.90;;
11220;SDS011;8517;53.546;10.104;2022-09-09T13:13:50;4.03;;;3.37;;
11220;SDS011;8517;53.546;10.104;2022-09-09T13:16:19;3.73;;;2.40;;
11220;SDS011;8517;53.546;10.104;2022-09-09T13:18:47;2.90;;;2.60;;
11220;SDS011;8517;53.546;10.104;2022-09-09T13:21:15;3.50;;;2.23;;
11220;SDS011;8517;53.546;10.104;2022-09-09T13:23:42;3.47;;;2.33;;
11220;SDS011;8517;53.546;10.104;2022-09-09T13:26:20;3.77;;;2.80;;
11220;SDS011;8517;53.546;10.104;2022-09-09T13:28:54;3.67;;;2.90;;
11220;SDS011;8517;53.546;10.104;2022-09-09T13:31:33;5.00;;;2.43;;
11220;SDS011;8517;53.546;10.104;2022-09-09T13:34:10;5.57;;;2.70;;
11220;SDS011;8517;53.546;10.104;2022-09-09T13:36:46;3.70;;;2.40;;
11220;SDS011;8517;53.546;10.104;2022-09-09T13:39:15;10.00;;;7.50;;
11220;SDS011;8517;53.546;10.104;2022-09-09T13:41:44;6.47;;;3.70;;
11220;SDS011;8517;53.546;10.104;2022-09-09T13:44:17;4.17;;;2.90;;
11220;SDS011;8517;53.546;10.104;2022-09-09T13:46:58;3.60;;;3.00;;
11220;SDS011;8517;53.546;10.104;2022-09-09T13:49:27;5.50;;;2.80;;
11220;SDS011;8517;53.546;10.104;2022-09-09T13:52:03;5.40;;;3.43;;
11220;SDS011;8517;53.546;10.104;2022-09-09T13:54:34;7.17;;;3.97;;
11220;SDS011;8517;53.546;10.104;2022-09-09T13:57:01;5.83;;;4.67;;
11220;SDS011;8517;53.546;10.104;2022-09-09T13:59:30;8.90;;;6.03;;
11220;SDS011;8517;53.546;10.104;2022-09-09T14:01:57;10.70;;;6.53;;
11220;SDS011;8517;53.546;10.104;2022-09-09T14:04:26;9.30;;;6.30;;
11220;SDS011;8517;53.546;10.104;2022-09-09T14:06:53;5.87;;;4.23;;
11220;SDS011;8517;53.546;10.104;2022-09-09T14:09:23;5.93;;;3.60;;
11220;SDS011;8517;53.546;10.104;2022-09-09T14:11:50;5.83;;;3.30;;
11220;SDS011;8517;53.546;10.104;2022-09-09T14:14:17;6.40;;;3.63;;
11220;SDS011;8517;53.546;10.104;2022-09-09T14:16:49;6.10;;;3.67;;
11220;SDS011;8517;53.546;10.104;2022-09-09T14:19:17;7.50;;;3.57;;
11220;SDS011;8517;53.546;10.104;2022-09-09T14:21:45;7.40;;;4.70;;
11220;SDS011;8517;53.546;10.104;2022-09-09T14:24:11;7.40;;;4.57;;
11220;SDS011;8517;53.546;10.104;2022-09-09T14:26:39;4.63;;;3.20;;
11220;SDS011;8517;53.546;10.104;2022-09-09T14:29:05;6.57;;;3.70;;
11220;SDS011;8517;53.546;10.104;2022-09-09T14:31:32;5.33;;;3.23;;
11220;SDS011;8517;53.546;10.104;2022-09-09T14:34:00;3.87;;;3.20;;
11220;SDS011;8517;53.546;10.104;2022-09-09T14:36:27;3.87;;;3.33;;
11220;SDS011;8517;53.546;10.104;2022-09-09T14:38:54;6.73;;;3.20;;
11220;SDS011;8517;53.546;10.104;2022-09-09T14:41:21;5.10;;;3.20;;
11220;SDS011;8517;53.546;10.104;2022-09-09T14:43:48;6.47;;;3.30;;
11220;SDS011;8517;53.546;10.104;2022-09-09T14:46:16;4.13;;;2.90;;
11220;SDS011;8517;53.546;10.104;2022-09-09T14:48:43;7.80;;;3.60;;
11220;SDS011;8517;53.546;10.104;2022-09-09T14:51:15;5.67;;;3.07;;
11220;SDS011;8517;53.546;10.104;2022-09-09T14:53:44;4.30;;;3.20;;
11220;SDS011;8517;53.546;10.104;2022-09-09T14:56:12;6.23;;;3.60;;
11220;SDS011;8517;53.546;10.104;2022-09-09T14:58:40;5.10;;;3.47;;
11220;SDS011;8517;53.546;10.104;2022-09-09T15:01:09;7.93;;;4.53;;
11220;SDS011;8517;53.546;10.104;2022-09-09T15:03:37;6.53;;;3.27;;
11220;SDS011;8517;53.546;10.104;2022-09-09T15:06:05;3.90;;;3.50;;
11220;SDS011;8517;53.546;10.104;2022-09-09T15:08:44;6.03;;;3.60;;
11220;SDS011;8517;53.546;10.104;2022-09-09T15:11:12;5.90;;;2.67;;
11220;SDS011;8517;53.546;10.104;2022-09-09T15:13:40;4.13;;;2.67;;
11220;SDS011;8517;53.546;10.104;2022-09-09T15:16:08;3.67;;;2.30;;
11220;SDS011;8517;53.546;10.104;2022-09-09T15:18:36;2.90;;;2.30;;
11220;SDS011;8517;53.546;10.104;2022-09-09T15:21:05;3.63;;;2.40;;
11220;SDS011;8517;53.546;10.104;2022-09-09T15:23:32;2.67;;;2.10;;
11220;SDS011;8517;53.546;10.104;2022-09-09T15:26:00;2.57;;;1.80;;
11220;SDS011;8517;53.546;10.104;2022-09-09T15:28:28;5.30;;;3.00;;
11220;SDS011;8517;53.546;10.104;2022-09-09T15:30:55;5.20;;;2.87;;
11220;SDS011;8517;53.546;10.104;2022-09-09T15:33:23;3.73;;;2.50;;